KACK/ACK METAR and TAF weather

Enter ICAO airport designator
Station Type Date Time Source
KACK METAR 2018/01/19 22:53 UTC NOAA

KACK 192253Z 27009KT 10SM CLR M01/M04 A2997 RMK AO2 SLP147 T10061039


Station Type Date Time Source
KACK Decoded METAR 2018/01/19 22:53 UTC NOAA

NANTUCKET MEMORIAL AIRPORT, MA, United States (KACK) 41-15N 70-04W 16M
Jan 19, 2018 - 05:53 PM EST / 2018.01.19 2253 UTC
Wind: from the W (270 degrees) at 10 MPH (9 KT):0
Visibility: 10 mile(s):0
Sky conditions: clear
Temperature: 30.9 F (-0.6 C)
Windchill: 23 F (-5 C):1
Dew Point: 25.0 F (-3.9 C)
Relative Humidity: 78%
Pressure (altimeter): 29.97 in. Hg (1014 hPa)
ob: KACK 192253Z 27009KT 10SM CLR M01/M04 A2997 RMK AO2 SLP147 T10061039
cycle: 23

Station Type Date Time Source
KACK TAF 2018/01/19 21:46 UTC NOAA

TAF
AMD KACK 192044Z 1921/2018 28013KT P6SM FEW150
FM201300 23020G32KT P6SM FEW150 WS020/24050KT


Example: see airport list